Sappemeer, Netherlands
Current Conditions -  °F | °C
As of 12:25 AM on Saturday 20 Dec 2014 (Local Time) from EHGG Reporting Station
Broken Clouds Broken Clouds  
Wind Chill: 37°   Ceiling: 4500
Heat Index: 45°   Visibility: 6mi
Dew Point: 37°   Wind: 20mph
Humidity: 76%   Direction: 250°WSW
Pressure: 29.91"   Gusts: NA
Location:  53.16°N, 6.79°E
Report Text: EHGG 192325Z AUTO 25017KT 9999 FEW028 BKN045 07/03 Q1013
Loading
Personal Weather Stations






























Interactive Weather Map New forecast layout! Learn more

10-Day Weather Forecast

Advertisements
Track Severe Weather on mobile